Time;durP1;ratioP1;P1;durP2;ratioP2;P2;SDS_P1;SDS_P2;PMS_P1;PMS_P2;Temp;Humidity;BMP_temperature;BMP_pressure;BME280_temperature;BME280_humidity;BME280_pressure;Samples;Min_cycle;Max_cycle;Signal;HPM_P1;HPM_P2
2020/12/08 00:00:45;;;;;;;7.10;6.40;;;4.40;99.90;;;;;;5054485;28;20032;-81
2020/12/08 00:03:10;;;;;;;6.82;6.20;;;4.40;99.90;;;;;;5056603;28;20085;-82
2020/12/08 00:05:36;;;;;;;7.13;6.43;;;4.40;99.90;;;;;;5045868;28;20625;-81
2020/12/08 00:08:05;;;;;;;6.93;6.22;;;4.40;99.90;;;;;;5045730;28;20125;-82
2020/12/08 00:10:31;;;;;;;9.32;7.38;;;4.40;99.90;;;;;;5056463;28;20032;-82
2020/12/08 00:12:56;;;;;;;7.95;6.65;;;4.40;99.90;;;;;;5055472;28;20028;-81
2020/12/08 00:15:22;;;;;;;7.18;6.45;;;4.40;99.90;;;;;;5053429;28;20022;-80
2020/12/08 00:17:48;;;;;;;6.88;6.18;;;4.40;99.90;;;;;;5048077;28;20039;-80
2020/12/08 00:20:22;;;;;;;7.47;6.45;;;4.40;99.90;;;;;;5059526;28;20031;-80
2020/12/08 00:22:48;;;;;;;8.52;6.32;;;4.40;99.90;;;;;;5057160;28;20424;-81
2020/12/08 00:25:14;;;;;;;6.68;6.07;;;4.40;99.90;;;;;;5057419;28;20029;-81
2020/12/08 00:27:40;;;;;;;6.40;5.80;;;4.40;99.90;;;;;;5056478;28;20036;-80
2020/12/08 00:30:12;;;;;;;6.25;5.65;;;4.30;99.90;;;;;;5056807;28;20028;-81
2020/12/08 00:32:43;;;;;;;7.40;6.70;;;4.30;99.90;;;;;;5069650;28;20025;-81
2020/12/08 00:35:11;;;;;;;7.95;6.53;;;4.30;99.90;;;;;;5052327;28;20032;-82
2020/12/08 00:37:36;;;;;;;6.80;6.13;;;4.30;99.90;;;;;;5069184;28;20108;-80
2020/12/08 00:40:04;;;;;;;7.78;5.65;;;4.40;99.90;;;;;;5048115;28;20060;-80
2020/12/08 00:42:29;;;;;;;6.57;5.15;;;4.30;99.90;;;;;;5065777;28;20028;-81
2020/12/08 00:44:55;;;;;;;7.32;6.13;;;4.30;99.90;;;;;;5056136;28;20017;-81
2020/12/08 00:47:20;;;;;;;6.97;5.93;;;4.30;99.90;;;;;;5053661;28;20028;-81
2020/12/08 00:49:46;;;;;;;6.95;6.15;;;4.30;99.90;;;;;;5069540;28;20430;-81
2020/12/08 00:52:11;;;;;;;6.15;5.53;;;4.30;99.90;;;;;;5054413;28;20020;-81
2020/12/08 00:54:37;;;;;;;6.55;5.82;;;4.30;99.90;;;;;;5071221;28;20040;-81
2020/12/08 00:57:03;;;;;;;6.00;5.40;;;4.30;99.90;;;;;;5053443;28;20033;-82
2020/12/08 00:59:28;;;;;;;5.53;4.95;;;4.30;99.90;;;;;;5057497;28;20032;-81
2020/12/08 01:01:54;;;;;;;6.05;5.40;;;4.40;99.90;;;;;;5057521;28;20016;-81
2020/12/08 01:04:25;;;;;;;5.25;4.82;;;4.30;99.90;;;;;;5055148;28;20031;-82
2020/12/08 01:06:51;;;;;;;5.78;5.28;;;4.30;99.90;;;;;;5063706;28;20033;-81
2020/12/08 01:09:17;;;;;;;6.13;5.40;;;4.30;99.90;;;;;;5048260;28;20059;-81
2020/12/08 01:11:43;;;;;;;5.75;4.63;;;4.30;99.90;;;;;;5057355;28;20020;-82
2020/12/08 01:14:12;;;;;;;6.00;5.40;;;4.30;99.90;;;;;;5053068;28;20108;-79
2020/12/08 01:16:39;;;;;;;6.18;5.45;;;4.30;99.90;;;;;;5059276;28;20024;-80
2020/12/08 01:19:09;;;;;;;7.85;5.35;;;4.30;99.90;;;;;;5054843;28;20036;-78
2020/12/08 01:21:35;;;;;;;5.50;4.95;;;4.30;99.90;;;;;;5051511;28;20039;-79
2020/12/08 01:24:00;;;;;;;5.63;5.13;;;4.30;99.90;;;;;;5050257;28;20494;-80
2020/12/08 01:26:27;;;;;;;5.50;4.78;;;4.30;99.90;;;;;;5050942;28;20051;-79
2020/12/08 01:28:52;;;;;;;5.68;5.18;;;4.30;99.90;;;;;;5056533;28;20062;-79
2020/12/08 01:31:18;;;;;;;6.45;5.72;;;4.30;99.90;;;;;;5061385;28;20020;-81
2020/12/08 01:33:44;;;;;;;5.53;5.00;;;4.30;99.90;;;;;;5055932;28;20063;-78
2020/12/08 01:36:10;;;;;;;5.93;5.13;;;4.30;99.90;;;;;;5053011;28;20017;-80
2020/12/08 01:38:36;;;;;;;5.13;4.68;;;4.30;99.90;;;;;;5052410;28;20028;-80
2020/12/08 01:41:02;;;;;;;5.68;5.18;;;4.20;99.90;;;;;;5056628;28;20545;-79
2020/12/08 01:43:28;;;;;;;6.78;4.97;;;4.20;99.90;;;;;;5050287;28;20383;-80
2020/12/08 01:45:54;;;;;;;5.93;5.22;;;4.30;99.90;;;;;;5070803;28;20111;-80
2020/12/08 01:48:20;;;;;;;4.97;4.55;;;4.20;99.90;;;;;;5069762;28;20052;-78
2020/12/08 01:50:47;;;;;;;7.82;6.03;;;4.20;99.90;;;;;;5068739;28;20399;-79
2020/12/08 01:53:13;;;;;;;6.05;5.53;;;4.20;99.90;;;;;;5052943;28;20028;-81
2020/12/08 01:55:39;;;;;;;5.82;5.28;;;4.20;99.90;;;;;;5044937;28;20029;-80
2020/12/08 01:58:21;;;;;;;5.53;5.03;;;4.20;99.90;;;;;;5049075;28;20504;-79
2020/12/08 02:00:47;;;;;;;6.28;5.20;;;4.20;99.90;;;;;;5051326;28;20036;-80
2020/12/08 02:03:14;;;;;;;6.93;4.68;;;4.20;99.90;;;;;;5050824;28;20043;-80
2020/12/08 02:05:40;;;;;;;7.45;5.47;;;4.20;99.90;;;;;;5048407;28;20155;-79
2020/12/08 02:08:05;;;;;;;5.50;5.00;;;4.20;99.90;;;;;;5053111;28;20045;-78
2020/12/08 02:10:31;;;;;;;6.00;5.35;;;4.20;99.90;;;;;;5055252;28;20388;-78
2020/12/08 02:12:57;;;;;;;7.55;6.22;;;4.20;99.90;;;;;;5060504;28;20525;-79
2020/12/08 02:15:23;;;;;;;6.63;5.93;;;4.20;99.90;;;;;;5058022;28;20084;-79
2020/12/08 02:17:48;;;;;;;6.82;6.13;;;4.20;99.90;;;;;;5054097;28;20028;-80
2020/12/08 02:20:14;;;;;;;6.50;5.55;;;4.30;99.90;;;;;;5059341;28;20077;-80
2020/12/08 02:22:42;;;;;;;6.05;5.45;;;4.30;99.90;;;;;;5076129;28;20026;-78
2020/12/08 02:25:09;;;;;;;7.20;5.80;;;4.30;99.90;;;;;;5058084;28;20455;-80
2020/12/08 02:27:35;;;;;;;6.57;5.97;;;4.20;99.90;;;;;;5072768;28;20391;-80
2020/12/08 02:30:00;;;;;;;6.97;6.22;;;4.20;99.90;;;;;;5055050;28;20024;-80
2020/12/08 02:32:26;;;;;;;5.82;5.32;;;4.20;99.90;;;;;;5057336;28;20032;-80
2020/12/08 02:34:51;;;;;;;6.03;5.43;;;4.30;99.90;;;;;;5074669;28;20044;-80
2020/12/08 02:37:17;;;;;;;6.30;5.70;;;4.30;99.90;;;;;;5057446;28;20391;-80
2020/12/08 02:39:42;;;;;;;6.05;5.43;;;4.30;99.90;;;;;;5053143;28;20036;-79
2020/12/08 02:42:08;;;;;;;6.05;5.43;;;4.30;99.90;;;;;;5073967;28;20024;-80
2020/12/08 02:44:33;;;;;;;6.28;5.65;;;4.30;99.90;;;;;;5072187;28;20035;-80
2020/12/08 02:46:59;;;;;;;6.53;5.55;;;4.30;99.90;;;;;;5059059;28;20090;-80
2020/12/08 02:49:24;;;;;;;6.75;5.57;;;4.30;99.90;;;;;;5057306;28;20093;-81
2020/12/08 02:51:58;;;;;;;6.63;5.50;;;4.30;99.90;;;;;;5075520;28;20025;-80
2020/12/08 02:54:24;;;;;;;7.05;6.00;;;4.20;99.90;;;;;;5067867;28;20028;-80
2020/12/08 02:56:49;;;;;;;7.20;5.93;;;4.30;99.90;;;;;;5057985;28;20021;-80
2020/12/08 02:59:15;;;;;;;5.68;5.18;;;4.20;99.90;;;;;;5069611;28;20028;-80
2020/12/08 03:01:40;;;;;;;6.03;5.32;;;4.20;99.90;;;;;;5059093;28;20475;-81
2020/12/08 03:04:06;;;;;;;5.85;5.25;;;4.20;99.90;;;;;;5054707;28;20694;-81
2020/12/08 03:06:31;;;;;;;5.47;4.50;;;4.20;99.90;;;;;;5057639;28;20017;-79
2020/12/08 03:08:57;;;;;;;5.70;5.18;;;4.20;99.90;;;;;;5051558;28;20070;-80
2020/12/08 03:11:30;;;;;;;7.15;5.75;;;4.20;99.90;;;;;;5054347;28;20032;-80
2020/12/08 03:13:56;;;;;;;7.15;5.88;;;4.10;99.90;;;;;;5063441;28;20025;-79
2020/12/08 03:16:21;;;;;;;6.80;5.95;;;4.20;99.90;;;;;;5056729;28;20108;-80
2020/12/08 03:18:47;;;;;;;7.30;5.97;;;4.10;99.90;;;;;;5053262;28;20685;-79
2020/12/08 03:21:12;;;;;;;7.25;6.05;;;4.10;99.90;;;;;;5067594;28;20036;-80
2020/12/08 03:23:39;;;;;;;6.57;5.88;;;4.10;99.90;;;;;;5049977;28;20041;-79
2020/12/08 03:26:04;;;;;;;6.65;5.60;;;4.20;99.90;;;;;;5071494;28;20017;-80
2020/12/08 03:28:30;;;;;;;6.68;5.88;;;4.10;99.90;;;;;;5064607;28;20112;-81
2020/12/08 03:30:56;;;;;;;6.88;5.82;;;4.10;99.90;;;;;;5068617;28;20021;-79
2020/12/08 03:33:21;;;;;;;6.93;6.20;;;4.10;99.90;;;;;;5074241;28;20048;-80
2020/12/08 03:35:47;;;;;;;7.70;6.30;;;4.10;99.90;;;;;;5067015;28;20021;-80
2020/12/08 03:38:12;;;;;;;6.13;5.57;;;4.10;99.90;;;;;;5061924;28;20036;-78
2020/12/08 03:40:40;;;;;;;8.45;6.50;;;4.10;99.90;;;;;;5056768;28;20032;-80
2020/12/08 03:43:05;;;;;;;7.20;6.10;;;4.10;99.90;;;;;;5070716;28;20024;-80
2020/12/08 03:45:32;;;;;;;7.53;5.50;;;4.20;99.90;;;;;;5057553;28;20040;-80
2020/12/08 03:47:57;;;;;;;6.25;5.65;;;4.10;99.90;;;;;;5067850;28;20035;-81
2020/12/08 03:50:23;;;;;;;6.70;6.00;;;4.10;99.90;;;;;;5051451;28;20395;-80
2020/12/08 03:52:48;;;;;;;8.25;6.47;;;4.10;99.90;;;;;;5069264;28;20119;-81
2020/12/08 03:55:14;;;;;;;7.60;6.43;;;4.10;99.90;;;;;;5062163;28;20031;-79
2020/12/08 03:57:39;;;;;;;7.28;5.93;;;4.20;99.90;;;;;;5058588;28;20113;-80
2020/12/08 04:00:07;;;;;;;7.22;6.53;;;4.10;99.90;;;;;;5066980;28;20338;-80
2020/12/08 04:02:33;;;;;;;6.32;5.72;;;4.20;99.90;;;;;;5050074;28;20032;-81
2020/12/08 04:04:59;;;;;;;7.22;6.53;;;4.10;99.90;;;;;;5052689;28;20143;-80
2020/12/08 04:07:24;;;;;;;7.15;6.45;;;4.20;99.90;;;;;;5072831;28;20083;-80
2020/12/08 04:09:50;;;;;;;6.57;5.90;;;4.10;99.90;;;;;;5073213;28;20046;-80
2020/12/08 04:12:15;;;;;;;7.93;7.13;;;4.10;99.90;;;;;;5056074;28;20021;-79
2020/12/08 04:14:41;;;;;;;7.07;6.47;;;4.20;99.90;;;;;;5070626;28;20032;-80
2020/12/08 04:17:06;;;;;;;6.30;5.70;;;4.10;99.90;;;;;;5052695;28;20399;-80
2020/12/08 04:19:32;;;;;;;7.10;6.35;;;4.10;99.90;;;;;;5057397;28;20036;-80
2020/12/08 04:21:59;;;;;;;6.95;6.25;;;4.10;99.90;;;;;;5054046;28;20025;-79
2020/12/08 04:24:24;;;;;;;6.55;5.75;;;4.10;99.90;;;;;;5058153;28;20091;-80
2020/12/08 04:26:50;;;;;;;7.75;6.90;;;4.10;99.90;;;;;;5049996;28;20063;-80
2020/12/08 04:29:15;;;;;;;7.75;6.93;;;4.10;99.90;;;;;;5055509;28;20016;-80
2020/12/08 04:31:41;;;;;;;6.90;6.30;;;4.10;99.90;;;;;;5049767;28;20539;-81
2020/12/08 04:34:06;;;;;;;8.68;7.50;;;4.10;99.90;;;;;;5052079;28;20069;-80
2020/12/08 04:36:32;;;;;;;8.05;7.00;;;4.10;99.90;;;;;;5046365;28;20396;-78
2020/12/08 04:38:57;;;;;;;8.13;7.15;;;4.10;99.90;;;;;;5070096;28;20054;-79
2020/12/08 04:41:24;;;;;;;7.30;6.30;;;4.10;99.90;;;;;;5051936;28;20028;-80
2020/12/08 04:43:51;;;;;;;7.55;6.60;;;4.10;99.90;;;;;;5070409;28;20043;-80
2020/12/08 04:46:19;;;;;;;8.10;6.93;;;4.10;99.90;;;;;;5047737;28;20074;-79
2020/12/08 04:48:45;;;;;;;7.38;6.63;;;4.10;99.90;;;;;;5066281;28;20128;-80
2020/12/08 04:51:11;;;;;;;8.07;6.45;;;4.10;99.90;;;;;;5053319;28;20028;-80
2020/12/08 04:53:36;;;;;;;9.05;7.32;;;4.10;99.90;;;;;;5048562;28;20082;-80
2020/12/08 04:56:02;;;;;;;8.82;7.75;;;4.10;99.90;;;;;;5052564;28;20096;-80
2020/12/08 04:58:28;;;;;;;8.48;6.97;;;4.10;99.90;;;;;;5051850;28;20017;-80
2020/12/08 05:00:54;;;;;;;7.72;6.93;;;4.10;99.90;;;;;;5047565;28;20044;-80
2020/12/08 05:03:23;;;;;;;7.28;6.28;;;4.10;99.90;;;;;;5057152;28;20542;-80
2020/12/08 05:05:49;;;;;;;10.15;8.00;;;4.10;99.90;;;;;;5053859;28;20033;-79
2020/12/08 05:08:16;;;;;;;7.28;6.57;;;4.10;99.90;;;;;;5048094;28;20070;-80
2020/12/08 05:10:42;;;;;;;8.52;7.57;;;4.10;99.90;;;;;;5050963;28;20024;-79
2020/12/08 05:13:27;;;;;;;8.52;7.35;;;4.10;99.90;;;;;;5052743;28;20024;-79
2020/12/08 05:16:07;;;;;;;8.40;7.20;;;4.10;99.90;;;;;;5048372;28;20032;-80
2020/12/08 05:18:34;;;;;;;8.27;6.85;;;4.10;99.90;;;;;;5050550;28;20039;-80
2020/12/08 05:21:09;;;;;;;7.10;6.40;;;4.10;99.90;;;;;;5057459;28;20082;-79
2020/12/08 05:23:42;;;;;;;8.88;7.72;;;4.10;99.90;;;;;;5063591;28;20033;-80
2020/12/08 05:26:09;;;;;;;7.97;7.15;;;4.10;99.90;;;;;;5058287;28;20032;-80
2020/12/08 05:28:36;;;;;;;8.23;7.22;;;4.10;99.90;;;;;;5050976;28;20498;-80
2020/12/08 05:31:02;;;;;;;9.48;7.25;;;4.10;99.90;;;;;;5055376;28;20027;-79
2020/12/08 05:33:27;;;;;;;8.77;7.88;;;4.20;99.90;;;;;;5054685;28;20024;-79
2020/12/08 05:35:56;;;;;;;8.82;7.40;;;4.10;99.90;;;;;;5050726;28;20021;-80
2020/12/08 05:38:27;;;;;;;8.63;7.72;;;4.10;99.90;;;;;;5065858;28;20074;-80
2020/12/08 05:40:54;;;;;;;12.77;8.70;;;4.20;99.90;;;;;;5052705;28;20105;-80
2020/12/08 05:43:20;;;;;;;9.27;8.13;;;4.10;99.90;;;;;;5052640;28;20029;-79
2020/12/08 05:45:49;;;;;;;10.82;8.00;;;4.10;99.90;;;;;;5058245;28;20033;-81
2020/12/08 05:48:21;;;;;;;10.90;8.43;;;4.10;99.90;;;;;;5056382;28;20098;-80
2020/12/08 05:50:47;;;;;;;10.05;8.50;;;4.10;99.90;;;;;;5066408;28;20040;-80
2020/12/08 05:53:17;;;;;;;13.93;8.65;;;4.10;99.90;;;;;;5049135;28;20032;-79
2020/12/08 05:55:43;;;;;;;8.88;7.97;;;4.10;99.90;;;;;;5048952;28;20028;-80
2020/12/08 05:58:10;;;;;;;10.80;9.05;;;4.10;99.90;;;;;;5060343;28;20025;-80
2020/12/08 06:00:37;;;;;;;9.02;7.80;;;4.10;99.90;;;;;;5059054;28;20097;-80
2020/12/08 06:03:13;;;;;;;11.50;8.45;;;4.10;99.90;;;;;;5058808;28;20032;-78
2020/12/08 06:05:41;;;;;;;9.35;7.97;;;4.10;99.90;;;;;;5065985;28;20033;-79
2020/12/08 06:08:21;;;;;;;15.13;8.90;;;4.10;99.90;;;;;;5081301;28;20638;-80
2020/12/08 06:10:51;;;;;;;8.68;7.68;;;4.00;99.90;;;;;;5085957;28;20511;-79
2020/12/08 06:13:25;;;;;;;12.05;8.40;;;4.00;99.90;;;;;;5067378;28;20297;-80
2020/12/08 06:15:51;;;;;;;9.88;8.30;;;4.00;99.90;;;;;;5043107;28;20058;-79
2020/12/08 06:18:30;;;;;;;10.20;8.05;;;4.00;99.90;;;;;;5058774;28;20028;-79
2020/12/08 06:20:57;;;;;;;9.55;8.45;;;4.00;99.90;;;;;;5062877;28;20052;-81
2020/12/08 06:23:22;;;;;;;10.20;8.57;;;4.00;99.90;;;;;;5075797;28;20033;-80
2020/12/08 06:26:04;;;;;;;12.38;9.00;;;4.00;99.90;;;;;;5076991;28;20031;-78
2020/12/08 06:28:30;;;;;;;11.07;8.70;;;4.10;99.90;;;;;;5057433;28;20024;-79
2020/12/08 06:31:06;;;;;;;12.40;9.45;;;4.10;99.90;;;;;;5064732;28;20001;-78
2020/12/08 06:33:45;;;;;;;11.77;8.65;;;4.10;99.90;;;;;;5071546;28;20013;-79
2020/12/08 06:36:11;;;;;;;9.80;7.65;;;4.10;99.90;;;;;;5062112;28;20021;-80
2020/12/08 06:38:36;;;;;;;9.82;8.10;;;4.00;99.90;;;;;;5050283;28;20498;-80
2020/12/08 06:41:02;;;;;;;10.95;8.60;;;4.00;99.90;;;;;;5056217;28;20020;-80
2020/12/08 06:43:28;;;;;;;9.75;8.23;;;4.00;99.90;;;;;;5049577;28;20062;-78
2020/12/08 06:45:53;;;;;;;13.27;9.32;;;4.00;99.90;;;;;;5058997;28;20027;-78
2020/12/08 06:48:22;;;;;;;10.88;9.30;;;4.10;99.90;;;;;;5066018;28;20032;-80
2020/12/08 06:50:48;;;;;;;10.30;8.75;;;4.00;99.90;;;;;;5060598;28;20039;-80
2020/12/08 06:53:14;;;;;;;11.45;9.35;;;4.00;99.90;;;;;;5057762;28;20044;-79
2020/12/08 06:55:48;;;;;;;10.55;8.88;;;4.00;99.90;;;;;;5070917;28;20025;-79
2020/12/08 06:58:15;;;;;;;10.65;8.38;;;4.00;99.90;;;;;;5075967;28;20032;-80
2020/12/08 07:00:44;;;;;;;10.60;9.32;;;4.00;99.90;;;;;;5056018;28;20021;-80
2020/12/08 07:03:10;;;;;;;10.00;8.98;;;4.00;99.90;;;;;;5054769;28;20059;-80
2020/12/08 07:05:36;;;;;;;11.57;9.15;;;4.00;99.90;;;;;;5060589;28;20260;-80
2020/12/08 07:08:04;;;;;;;11.15;9.50;;;4.00;99.90;;;;;;5073293;28;20035;-80
2020/12/08 07:10:30;;;;;;;10.40;8.45;;;4.00;99.90;;;;;;5076964;28;20031;-79
2020/12/08 07:12:56;;;;;;;11.82;9.20;;;4.00;99.90;;;;;;5073641;28;20076;-80
2020/12/08 07:15:26;;;;;;;10.65;9.48;;;4.00;99.90;;;;;;5056230;28;20111;-78
2020/12/08 07:17:53;;;;;;;9.35;8.23;;;4.00;99.90;;;;;;5052056;28;20395;-78
2020/12/08 07:20:18;;;;;;;12.52;9.70;;;4.00;99.90;;;;;;5081251;28;20466;-80
2020/12/08 07:22:45;;;;;;;11.10;9.10;;;4.00;99.90;;;;;;5071350;28;20057;-80
2020/12/08 07:25:15;;;;;;;11.82;9.85;;;4.00;99.90;;;;;;5054882;28;20024;-81
2020/12/08 07:27:46;;;;;;;9.95;8.77;;;4.00;99.90;;;;;;5082272;28;20020;-79
2020/12/08 07:30:13;;;;;;;11.18;8.40;;;4.00;99.90;;;;;;5067651;28;20349;-79
2020/12/08 07:32:38;;;;;;;10.75;8.77;;;4.00;99.90;;;;;;5081543;28;20025;-81
2020/12/08 07:35:05;;;;;;;11.88;9.48;;;4.00;99.90;;;;;;5083904;28;20112;-80
2020/12/08 07:37:38;;;;;;;10.35;8.38;;;4.00;99.90;;;;;;5069111;28;20032;-80
2020/12/08 07:40:09;;;;;;;11.13;9.65;;;3.90;99.90;;;;;;5070148;28;20039;-81
2020/12/08 07:42:36;;;;;;;12.15;8.90;;;3.90;99.90;;;;;;5058211;28;20059;-80
2020/12/08 07:45:06;;;;;;;10.07;9.00;;;3.90;99.90;;;;;;5065735;28;20331;-80
2020/12/08 07:47:31;;;;;;;9.57;8.50;;;3.90;99.90;;;;;;5076991;28;20555;-81
2020/12/08 07:49:57;;;;;;;11.02;9.13;;;3.90;99.90;;;;;;5076222;28;20025;-81
2020/12/08 07:52:22;;;;;;;10.55;8.95;;;3.90;99.90;;;;;;5058915;28;20063;-80
2020/12/08 07:54:48;;;;;;;10.93;8.80;;;3.90;99.90;;;;;;5083020;28;20044;-80
2020/12/08 07:57:14;;;;;;;9.30;8.30;;;3.90;99.90;;;;;;5069495;28;20039;-81
2020/12/08 07:59:39;;;;;;;12.63;8.98;;;3.80;99.90;;;;;;5072583;28;20036;-81
2020/12/08 08:02:05;;;;;;;11.45;9.30;;;3.90;99.90;;;;;;5070877;28;20044;-79
2020/12/08 08:04:30;;;;;;;10.85;9.75;;;3.90;99.90;;;;;;5081614;28;20040;-81
2020/12/08 08:06:56;;;;;;;11.02;8.98;;;3.80;99.90;;;;;;5069798;28;20024;-80
2020/12/08 08:09:22;;;;;;;9.32;8.35;;;3.80;99.90;;;;;;5088187;28;20031;-81
2020/12/08 08:11:48;;;;;;;10.57;9.15;;;3.80;99.90;;;;;;5070859;28;20015;-81
2020/12/08 08:14:14;;;;;;;12.20;9.38;;;3.80;99.90;;;;;;5081259;28;20017;-80
2020/12/08 08:16:40;;;;;;;11.48;9.00;;;3.80;99.90;;;;;;5082290;28;20032;-81
2020/12/08 08:19:06;;;;;;;10.02;8.70;;;3.70;99.90;;;;;;5083093;28;20005;-81
2020/12/08 08:21:31;;;;;;;11.20;9.00;;;3.70;99.90;;;;;;5071990;28;20051;-81
2020/12/08 08:23:58;;;;;;;10.73;9.63;;;3.80;99.90;;;;;;5071085;28;20044;-80
2020/12/08 08:26:24;;;;;;;11.88;9.57;;;3.80;99.90;;;;;;5063030;28;20035;-81
2020/12/08 08:28:50;;;;;;;11.25;8.95;;;3.80;99.90;;;;;;5076072;28;20103;-81
2020/12/08 08:31:16;;;;;;;12.13;9.57;;;3.80;99.90;;;;;;5077302;28;20040;-81
2020/12/08 08:33:42;;;;;;;11.10;9.43;;;3.80;99.90;;;;;;5072193;28;20450;-81
2020/12/08 08:36:07;;;;;;;13.50;9.98;;;3.90;99.90;;;;;;5068889;28;20028;-80
2020/12/08 08:38:33;;;;;;;12.27;9.32;;;3.90;99.90;;;;;;5063853;28;20040;-81
2020/12/08 08:40:59;;;;;;;12.25;8.95;;;3.90;99.90;;;;;;5062434;28;20046;-80
2020/12/08 08:43:26;;;;;;;10.50;9.38;;;4.00;99.90;;;;;;5079877;28;20109;-81
2020/12/08 08:45:53;;;;;;;11.20;9.45;;;4.10;99.90;;;;;;5074448;28;20029;-79
2020/12/08 08:48:19;;;;;;;11.48;9.38;;;4.10;99.90;;;;;;5061492;28;20111;-81
2020/12/08 08:50:45;;;;;;;13.70;9.80;;;4.10;99.90;;;;;;5064824;28;20031;-81
2020/12/08 08:53:11;;;;;;;12.40;9.80;;;4.20;99.90;;;;;;5064297;28;20020;-80
2020/12/08 08:55:36;;;;;;;12.65;10.20;;;4.20;99.90;;;;;;5057832;28;20048;-81
2020/12/08 08:58:02;;;;;;;11.88;9.52;;;4.20;99.90;;;;;;5060906;28;20034;-81
2020/12/08 09:00:28;;;;;;;12.82;9.98;;;4.20;99.90;;;;;;5052455;28;20025;-81
2020/12/08 09:02:55;;;;;;;12.40;9.93;;;4.30;99.90;;;;;;5062593;28;20100;-80
2020/12/08 09:05:21;;;;;;;11.40;10.15;;;4.30;99.90;;;;;;5062845;28;20028;-81
2020/12/08 09:07:46;;;;;;;12.32;10.10;;;4.30;99.90;;;;;;5058428;28;20024;-80
2020/12/08 09:10:12;;;;;;;12.80;10.32;;;4.30;99.90;;;;;;5076084;28;20017;-81
2020/12/08 09:12:37;;;;;;;12.02;9.25;;;4.20;99.90;;;;;;5072197;28;20242;-81
2020/12/08 09:15:05;;;;;;;10.38;9.10;;;4.30;99.90;;;;;;5069610;28;20777;-81
2020/12/08 09:17:30;;;;;;;10.50;9.30;;;4.30;99.90;;;;;;5054085;28;20124;-81
2020/12/08 09:19:56;;;;;;;10.55;9.45;;;4.30;99.90;;;;;;5047373;28;20170;-80
2020/12/08 09:22:22;;;;;;;12.65;10.30;;;4.30;99.90;;;;;;5064321;28;20020;-80
2020/12/08 09:24:48;;;;;;;11.00;9.75;;;4.30;99.90;;;;;;5067323;28;20032;-81
2020/12/08 09:27:14;;;;;;;13.07;9.40;;;4.30;99.90;;;;;;5047977;28;20689;-80
2020/12/08 09:29:41;;;;;;;12.13;9.60;;;4.30;99.90;;;;;;5069130;28;20495;-80
2020/12/08 09:32:06;;;;;;;11.70;9.73;;;4.30;99.90;;;;;;5047448;28;20403;-79
2020/12/08 09:34:33;;;;;;;10.52;8.98;;;4.30;99.90;;;;;;5053390;28;20033;-80
2020/12/08 09:36:59;;;;;;;13.90;9.85;;;4.30;99.90;;;;;;5060147;28;20021;-80
2020/12/08 09:39:24;;;;;;;11.65;9.80;;;4.30;99.90;;;;;;5053204;28;20029;-80
2020/12/08 09:41:50;;;;;;;11.40;9.77;;;4.40;99.90;;;;;;5052401;28;20033;-80
2020/12/08 09:44:16;;;;;;;13.52;10.38;;;4.40;99.90;;;;;;5051387;28;20036;-79
2020/12/08 09:46:43;;;;;;;12.20;9.52;;;4.40;99.90;;;;;;5063415;28;20029;-80
2020/12/08 09:49:09;;;;;;;11.73;8.90;;;4.40;99.90;;;;;;5053830;28;20048;-82
2020/12/08 09:51:35;;;;;;;10.77;9.25;;;4.30;99.90;;;;;;5050519;28;20104;-81
2020/12/08 09:54:01;;;;;;;13.40;10.70;;;4.40;99.90;;;;;;5048473;28;20483;-82
2020/12/08 09:56:27;;;;;;;10.98;9.63;;;4.40;99.90;;;;;;5056910;28;20080;-81
2020/12/08 09:58:53;;;;;;;13.23;10.63;;;4.40;99.90;;;;;;5056346;28;20044;-81
2020/12/08 10:01:32;;;;;;;12.68;10.35;;;4.40;99.90;;;;;;5059705;28;20021;-82
2020/12/08 10:03:58;;;;;;;14.65;10.30;;;4.40;99.90;;;;;;5055206;28;20502;-81
2020/12/08 10:06:24;;;;;;;12.02;9.70;;;4.40;99.90;;;;;;5045465;28;20032;-82
2020/12/08 10:08:54;;;;;;;12.63;11.25;;;4.40;99.90;;;;;;5063459;28;20016;-81
2020/12/08 10:11:22;;;;;;;15.13;10.73;;;4.50;99.90;;;;;;5075273;28;20431;-81
2020/12/08 10:13:48;;;;;;;14.98;11.10;;;4.50;99.90;;;;;;5082360;28;20047;-79
2020/12/08 10:16:19;;;;;;;16.13;11.60;;;4.40;99.90;;;;;;5081139;28;20095;-81
2020/12/08 10:18:45;;;;;;;12.68;10.63;;;4.50;99.90;;;;;;5068349;28;20092;-82
2020/12/08 10:21:11;;;;;;;15.65;11.30;;;4.40;99.90;;;;;;5053989;28;20024;-82
2020/12/08 10:23:36;;;;;;;15.80;11.75;;;4.40;99.90;;;;;;5060801;28;20016;-79
2020/12/08 10:26:02;;;;;;;14.30;11.63;;;4.40;99.90;;;;;;5059607;28;20025;-82
2020/12/08 10:28:27;;;;;;;14.63;11.30;;;4.40;99.90;;;;;;5055538;28;20123;-80
2020/12/08 10:30:53;;;;;;;13.90;11.75;;;4.40;99.90;;;;;;5063701;28;20039;-81
2020/12/08 10:33:18;;;;;;;11.98;10.63;;;4.50;99.90;;;;;;5060990;28;20020;-81
2020/12/08 10:35:44;;;;;;;15.23;11.73;;;4.50;99.90;;;;;;5061365;28;20029;-82
2020/12/08 10:38:11;;;;;;;14.27;11.55;;;4.50;99.90;;;;;;5070407;28;20033;-80
2020/12/08 10:40:36;;;;;;;13.25;11.95;;;4.50;99.90;;;;;;5071043;28;20039;-82
2020/12/08 10:43:02;;;;;;;15.15;11.90;;;4.50;99.90;;;;;;5077676;28;20032;-81
2020/12/08 10:45:28;;;;;;;14.93;12.40;;;4.50;99.90;;;;;;5086422;28;20315;-81
2020/12/08 10:47:53;;;;;;;18.55;12.43;;;4.50;99.90;;;;;;5082527;28;20025;-80
2020/12/08 10:50:19;;;;;;;16.05;13.68;;;4.50;99.90;;;;;;5069320;28;20017;-82
2020/12/08 10:52:45;;;;;;;14.38;12.45;;;4.50;99.90;;;;;;5065584;28;20050;-81
2020/12/08 10:55:10;;;;;;;16.02;12.82;;;4.50;99.90;;;;;;5076221;28;20048;-80
2020/12/08 10:57:36;;;;;;;20.27;13.38;;;4.60;99.90;;;;;;5080088;28;20031;-79
2020/12/08 11:00:03;;;;;;;16.38;12.88;;;4.50;99.90;;;;;;5061915;28;20016;-82
2020/12/08 11:02:29;;;;;;;15.15;12.30;;;4.50;99.90;;;;;;5081137;28;20032;-82
2020/12/08 11:04:54;;;;;;;17.00;12.77;;;4.60;99.90;;;;;;5066635;28;20036;-81
2020/12/08 11:07:20;;;;;;;17.05;13.13;;;4.60;99.90;;;;;;5063546;28;20023;-82
2020/12/08 11:09:45;;;;;;;19.58;13.77;;;4.60;99.90;;;;;;5066005;28;20031;-82
2020/12/08 11:12:14;;;;;;;15.70;12.50;;;4.60;99.90;;;;;;5065640;28;20028;-82
2020/12/08 11:14:40;;;;;;;17.58;13.32;;;4.60;99.90;;;;;;5078804;28;20055;-80
2020/12/08 11:17:05;;;;;;;18.83;14.15;;;4.60;99.90;;;;;;5077363;28;20051;-81
2020/12/08 11:19:31;;;;;;;16.67;13.55;;;4.70;99.90;;;;;;5052537;28;20355;-82
2020/12/08 11:22:02;;;;;;;16.75;13.32;;;4.70;99.90;;;;;;5068859;28;20483;-80
2020/12/08 11:24:28;;;;;;;18.25;14.60;;;4.70;99.90;;;;;;5052288;28;20090;-82
2020/12/08 11:26:53;;;;;;;16.85;12.73;;;4.80;99.90;;;;;;5057334;28;20543;-82
2020/12/08 11:29:19;;;;;;;21.10;14.40;;;4.80;99.90;;;;;;5067529;28;20445;-81
2020/12/08 11:31:45;;;;;;;16.08;13.52;;;4.80;99.90;;;;;;5060438;28;20479;-81
2020/12/08 11:34:11;;;;;;;16.63;12.88;;;4.80;99.90;;;;;;5055341;28;20603;-81
2020/12/08 11:36:37;;;;;;;17.40;14.13;;;4.80;99.90;;;;;;5057216;28;20112;-79
2020/12/08 11:39:03;;;;;;;20.20;15.80;;;4.80;99.90;;;;;;5055871;28;20053;-82
2020/12/08 11:41:29;;;;;;;16.40;14.60;;;4.80;99.90;;;;;;5061794;28;20025;-81
2020/12/08 11:43:54;;;;;;;18.05;14.30;;;4.80;99.90;;;;;;5053731;28;20112;-81
2020/12/08 11:46:20;;;;;;;18.75;14.77;;;4.80;99.90;;;;;;5075490;28;20021;-82
2020/12/08 11:48:45;;;;;;;18.40;15.20;;;4.80;99.90;;;;;;5075763;28;20036;-80
2020/12/08 11:51:11;;;;;;;19.27;14.35;;;4.80;99.90;;;;;;5067039;28;20036;-81
2020/12/08 11:53:36;;;;;;;17.67;13.82;;;4.80;99.90;;;;;;5059482;28;20020;-82
2020/12/08 11:56:02;;;;;;;19.77;13.88;;;4.90;99.90;;;;;;5057806;28;20060;-80
2020/12/08 11:58:28;;;;;;;17.02;14.07;;;4.90;99.90;;;;;;5056364;28;20028;-82
2020/12/08 12:00:54;;;;;;;18.67;14.23;;;4.90;99.90;;;;;;5056695;28;20028;-81
2020/12/08 12:03:19;;;;;;;17.73;14.85;;;5.00;99.90;;;;;;5060211;28;20029;-78
2020/12/08 12:05:45;;;;;;;18.35;14.25;;;5.00;99.90;;;;;;5077193;28;20092;-82
2020/12/08 12:08:10;;;;;;;14.82;13.23;;;5.10;99.90;;;;;;5056295;28;20029;-82
2020/12/08 12:10:36;;;;;;;17.35;14.05;;;5.10;99.90;;;;;;5076889;28;20032;-81
2020/12/08 12:13:01;;;;;;;17.15;13.98;;;5.10;99.90;;;;;;5059575;28;20495;-81
2020/12/08 12:15:27;;;;;;;18.50;14.98;;;5.20;99.90;;;;;;5059865;28;20029;-81
2020/12/08 12:17:52;;;;;;;16.02;13.70;;;5.20;99.90;;;;;;5073511;28;20016;-82
2020/12/08 12:20:18;;;;;;;16.98;13.32;;;5.20;99.90;;;;;;5075288;28;20414;-79
2020/12/08 12:22:44;;;;;;;15.25;13.25;;;5.30;99.90;;;;;;5057613;28;20422;-82
2020/12/08 12:25:09;;;;;;;15.57;13.85;;;5.30;99.90;;;;;;5055998;28;20021;-81
2020/12/08 12:27:35;;;;;;;19.13;15.43;;;5.30;99.90;;;;;;5074799;28;20051;-81
2020/12/08 12:30:01;;;;;;;15.95;13.65;;;5.30;99.90;;;;;;5083799;28;20029;-80
2020/12/08 12:32:27;;;;;;;16.17;13.95;;;5.40;99.90;;;;;;5073721;28;20021;-81
2020/12/08 12:34:53;;;;;;;17.77;14.82;;;5.40;99.90;;;;;;5082027;28;20024;-82
2020/12/08 12:37:18;;;;;;;18.63;14.55;;;5.40;99.90;;;;;;5075358;28;20021;-82
2020/12/08 12:39:44;;;;;;;16.80;14.38;;;5.40;99.90;;;;;;5079798;28;20082;-80
2020/12/08 12:42:10;;;;;;;18.42;15.57;;;5.40;99.90;;;;;;5076363;28;20048;-81
2020/12/08 12:44:36;;;;;;;17.67;13.93;;;5.40;99.90;;;;;;5063993;28;20036;-81
2020/12/08 12:47:01;;;;;;;16.05;13.35;;;5.50;99.90;;;;;;5060901;28;20044;-81